createdAt,value
2023-02-21T00:02:19.406Z,2.60
2023-02-21T00:05:06.682Z,2.62
2023-02-21T00:07:53.399Z,2.64
2023-02-21T00:10:40.238Z,2.66
2023-02-21T00:13:26.965Z,2.67
2023-02-21T00:16:14.326Z,2.68
2023-02-21T00:19:01.187Z,2.70
2023-02-21T00:21:48.662Z,2.70
2023-02-21T00:24:36.323Z,2.71
2023-02-21T00:27:24.288Z,2.72
2023-02-21T00:30:11.177Z,2.73
2023-02-21T00:32:58.268Z,2.75
2023-02-21T00:35:45.130Z,2.76
2023-02-21T00:38:32.040Z,2.77
2023-02-21T00:41:19.042Z,2.77
2023-02-21T00:44:05.947Z,2.81
2023-02-21T00:46:52.636Z,2.84
2023-02-21T00:49:39.305Z,2.84
2023-02-21T00:52:26.057Z,2.90
2023-02-21T00:55:13.112Z,2.95
2023-02-21T00:58:00.088Z,2.99
2023-02-21T01:00:46.791Z,3.02
2023-02-21T01:03:33.736Z,3.06
2023-02-21T01:06:20.684Z,3.08
2023-02-21T01:09:07.507Z,3.10
2023-02-21T01:11:54.363Z,3.11
2023-02-21T01:14:41.272Z,3.15
2023-02-21T01:17:28.077Z,3.18
2023-02-21T01:20:15.320Z,3.21
2023-02-21T01:23:02.359Z,3.25
2023-02-21T01:25:49.325Z,3.29
2023-02-21T01:28:36.089Z,3.34
2023-02-21T01:31:23.323Z,3.40
2023-02-21T01:34:10.121Z,3.46
2023-02-21T01:37:00.380Z,3.51
2023-02-21T01:39:47.255Z,3.55
2023-02-21T01:42:34.639Z,3.59
2023-02-21T01:46:05.341Z,3.63
2023-02-21T01:48:53.903Z,3.73
2023-02-21T01:51:47.051Z,3.88
2023-02-21T01:54:35.930Z,4.13
2023-02-21T01:57:24.748Z,4.49
2023-02-21T02:00:17.340Z,4.85
2023-02-21T02:03:22.420Z,5.22
2023-02-21T02:06:14.579Z,5.65
2023-02-21T02:09:02.249Z,6.20
2023-02-21T02:11:54.711Z,6.67
2023-02-21T02:14:55.205Z,7.09
2023-02-21T02:17:23.374Z,7.47
2023-02-21T02:20:17.758Z,7.75
2023-02-21T02:22:58.238Z,8.01
2023-02-21T02:25:41.719Z,8.19
2023-02-21T02:28:24.293Z,8.33
2023-02-21T02:31:17.515Z,8.48
2023-02-21T02:34:09.620Z,8.59
2023-02-21T02:36:43.281Z,8.67
2023-02-21T02:39:24.230Z,8.72
2023-02-21T02:42:24.684Z,8.76
2023-02-21T02:45:14.479Z,8.79
2023-02-21T02:47:45.743Z,8.80
2023-02-21T02:50:15.206Z,8.78
2023-02-21T02:52:54.556Z,8.77
2023-02-21T02:55:32.762Z,8.77
2023-02-21T02:58:02.834Z,8.77
2023-02-21T03:00:34.982Z,8.74
2023-02-21T03:03:21.690Z,8.72
2023-02-21T03:06:17.966Z,8.68
2023-02-21T03:08:53.590Z,8.62
2023-02-21T03:11:24.239Z,8.58
2023-02-21T03:14:13.681Z,8.55
2023-02-21T03:16:48.423Z,8.49
2023-02-21T03:19:25.903Z,8.42
2023-02-21T03:22:02.297Z,8.36
2023-02-21T03:24:31.942Z,8.30
2023-02-21T03:27:05.212Z,8.23
2023-02-21T03:29:51.213Z,8.15
2023-02-21T03:32:26.900Z,8.07
2023-02-21T03:34:55.659Z,8.01
2023-02-21T03:37:41.143Z,7.96
2023-02-21T03:40:19.879Z,7.91
2023-02-21T03:42:52.427Z,7.85
2023-02-21T03:45:21.869Z,7.79
2023-02-21T03:48:11.328Z,7.71
2023-02-21T03:50:39.814Z,7.63
2023-02-21T03:53:10.016Z,7.58
2023-02-21T03:55:39.803Z,7.52
2023-02-21T03:58:12.295Z,7.47
2023-02-21T04:00:40.639Z,7.45
2023-02-21T04:03:08.864Z,7.44
2023-02-21T04:05:40.258Z,7.43
2023-02-21T04:08:10.354Z,7.41
2023-02-21T04:10:51.316Z,7.42
2023-02-21T04:13:23.983Z,7.41
2023-02-21T04:15:53.110Z,7.42
2023-02-21T04:18:22.388Z,7.40
2023-02-21T04:20:52.296Z,7.40
2023-02-21T04:23:22.490Z,7.41
2023-02-21T04:25:50.994Z,7.43
2023-02-21T04:28:28.104Z,7.45
2023-02-21T04:30:57.006Z,7.49
2023-02-21T04:33:25.675Z,7.50
2023-02-21T04:35:53.818Z,7.51
2023-02-21T04:38:31.669Z,7.54
2023-02-21T04:40:59.697Z,7.56
2023-02-21T04:43:27.949Z,7.57
2023-02-21T04:45:56.276Z,7.57
2023-02-21T04:48:26.369Z,7.57
2023-02-21T04:50:57.307Z,7.57
2023-02-21T04:53:27.360Z,7.59
2023-02-21T04:55:55.381Z,7.60
2023-02-21T04:58:24.552Z,7.62
2023-02-21T05:00:53.992Z,7.63
2023-02-21T05:03:22.301Z,7.66
2023-02-21T05:05:51.722Z,7.71
2023-02-21T05:08:19.962Z,7.76
2023-02-21T05:10:48.254Z,7.79
2023-02-21T05:13:16.979Z,7.82
2023-02-21T05:15:45.181Z,7.87
2023-02-21T05:18:13.331Z,7.91
2023-02-21T05:20:41.482Z,7.93
2023-02-21T05:23:13.925Z,7.93
2023-02-21T05:25:42.383Z,7.93
2023-02-21T05:28:10.535Z,7.95
2023-02-21T05:30:39.845Z,7.98
2023-02-21T05:33:08.358Z,8.01
2023-02-21T05:35:36.496Z,8.05
2023-02-21T05:38:04.824Z,8.09
2023-02-21T05:40:33.151Z,8.15
2023-02-21T05:43:01.475Z,8.20
2023-02-21T05:45:29.698Z,8.26
2023-02-21T05:48:00.434Z,8.32
2023-02-21T05:50:30.695Z,8.39
2023-02-21T05:52:59.368Z,8.47
2023-02-21T05:55:27.959Z,8.55
2023-02-21T05:57:56.487Z,8.64
2023-02-21T06:00:30.532Z,8.71
2023-02-21T06:02:58.671Z,8.79
2023-02-21T06:05:27.402Z,8.88
2023-02-21T06:07:55.634Z,8.97
2023-02-21T06:10:23.781Z,9.05
2023-02-21T06:12:52.517Z,9.12
2023-02-21T06:15:20.586Z,9.21
2023-02-21T06:17:48.814Z,9.29
2023-02-21T06:20:17.225Z,9.37
2023-02-21T06:22:45.838Z,9.46
2023-02-21T06:25:14.089Z,9.54
2023-02-21T06:27:43.935Z,9.63
2023-02-21T06:30:13.015Z,9.72
2023-02-21T06:32:43.006Z,9.81
2023-02-21T06:35:11.227Z,9.89
2023-02-21T06:37:39.364Z,9.96
2023-02-21T06:40:07.800Z,10.04
2023-02-21T06:42:37.212Z,10.13
2023-02-21T06:45:06.058Z,10.16
2023-02-21T06:47:34.260Z,10.23
2023-02-21T06:50:02.332Z,10.29
2023-02-21T06:52:32.066Z,10.34
2023-02-21T06:55:00.358Z,10.42
2023-02-21T06:57:28.629Z,10.54
2023-02-21T06:59:56.781Z,10.65
2023-02-21T07:02:25.104Z,10.77
2023-02-21T07:04:53.233Z,10.88
2023-02-21T07:07:21.437Z,11.01
2023-02-21T07:09:49.666Z,11.14
2023-02-21T07:12:17.833Z,11.25
2023-02-21T07:14:46.031Z,11.35
2023-02-21T07:17:14.222Z,11.48
2023-02-21T07:19:42.374Z,11.59
2023-02-21T07:22:10.520Z,11.73
2023-02-21T07:24:38.730Z,11.86
2023-02-21T07:27:07.178Z,11.96
2023-02-21T07:29:35.304Z,12.10
2023-02-21T07:32:03.621Z,12.29
2023-02-21T07:34:31.849Z,12.48
2023-02-21T07:36:59.980Z,12.61
2023-02-21T07:39:28.180Z,12.76
2023-02-21T07:41:56.254Z,12.89
2023-02-21T07:44:24.603Z,12.99
2023-02-21T07:46:53.060Z,13.05
2023-02-21T07:49:21.342Z,13.05
2023-02-21T07:51:51.026Z,13.10
2023-02-21T07:54:19.483Z,13.19
2023-02-21T07:56:49.655Z,13.31
2023-02-21T07:59:17.893Z,13.41
2023-02-21T08:01:47.691Z,13.54
2023-02-21T08:04:20.624Z,13.66
2023-02-21T08:06:49.467Z,13.74
2023-02-21T08:09:18.036Z,13.85
2023-02-21T08:11:46.142Z,13.94
2023-02-21T08:14:14.392Z,13.95
2023-02-21T08:16:42.580Z,13.86
2023-02-21T08:19:10.826Z,13.75
2023-02-21T08:21:39.112Z,13.63
2023-02-21T08:24:07.440Z,13.55
2023-02-21T08:26:35.698Z,13.49
2023-02-21T08:29:04.043Z,13.37
2023-02-21T08:31:37.235Z,13.23
2023-02-21T08:34:06.853Z,13.08
2023-02-21T08:36:37.267Z,12.94
2023-02-21T08:39:07.561Z,12.82
2023-02-21T08:41:44.453Z,12.68
2023-02-21T08:44:16.389Z,12.57
2023-02-21T08:46:45.133Z,12.49
2023-02-21T08:49:14.013Z,12.37
2023-02-21T08:51:42.404Z,12.25
2023-02-21T08:54:10.885Z,12.13
2023-02-21T08:56:39.029Z,12.09
2023-02-21T08:59:09.541Z,12.09
2023-02-21T09:01:37.798Z,12.11
2023-02-21T09:04:06.430Z,12.16
2023-02-21T09:06:34.522Z,12.35
2023-02-21T09:09:02.643Z,12.63
2023-02-21T09:11:30.818Z,12.94
2023-02-21T09:13:59.105Z,13.25
2023-02-21T09:16:27.450Z,13.59
2023-02-21T09:18:59.216Z,13.90
2023-02-21T09:21:28.875Z,14.17
2023-02-21T09:23:59.396Z,14.40
2023-02-21T09:26:34.915Z,14.61
2023-02-21T09:29:04.990Z,14.87
2023-02-21T09:31:33.250Z,15.12
2023-02-21T09:34:01.465Z,15.36
2023-02-21T09:36:29.573Z,15.52
2023-02-21T09:38:59.119Z,15.61
2023-02-21T09:41:28.783Z,15.72
2023-02-21T09:43:57.167Z,15.77
2023-02-21T09:46:48.026Z,15.87
2023-02-21T09:49:16.384Z,15.99
2023-02-21T09:51:44.932Z,16.01
2023-02-21T09:54:32.755Z,16.02
2023-02-21T09:57:04.314Z,16.07
2023-02-21T09:59:33.415Z,16.16
2023-02-21T10:02:07.636Z,16.25
2023-02-21T10:04:44.788Z,16.37
2023-02-21T10:07:32.233Z,16.42
2023-02-21T10:10:04.337Z,16.45
2023-02-21T10:12:41.335Z,16.55
2023-02-21T10:15:38.806Z,16.65
2023-02-21T10:18:13.409Z,16.75
2023-02-21T10:21:01.777Z,16.72
2023-02-21T10:23:37.680Z,16.67
2023-02-21T10:26:12.392Z,16.62
2023-02-21T10:28:40.789Z,16.49
2023-02-21T10:31:17.519Z,16.48
2023-02-21T10:33:46.611Z,16.50
2023-02-21T10:36:19.867Z,16.57
2023-02-21T10:39:12.009Z,16.55
2023-02-21T10:41:43.576Z,16.52
2023-02-21T10:44:35.374Z,16.51
2023-02-21T10:47:48.136Z,16.52
2023-02-21T10:51:05.729Z,16.41
2023-02-21T10:54:32.904Z,16.49
2023-02-21T10:57:17.257Z,16.70
2023-02-21T10:59:53.576Z,16.78
2023-02-21T11:02:47.584Z,16.90
2023-02-21T11:05:19.527Z,17.10
2023-02-21T11:08:08.630Z,17.17
2023-02-21T11:10:45.366Z,17.17
2023-02-21T11:13:18.286Z,17.27
2023-02-21T11:15:47.867Z,17.39
2023-02-21T11:18:18.027Z,17.49
2023-02-21T11:20:47.448Z,17.46
2023-02-21T11:23:21.392Z,17.43
2023-02-21T11:25:52.019Z,17.44
2023-02-21T11:28:23.823Z,17.57
2023-02-21T11:31:09.216Z,17.62
2023-02-21T11:33:41.720Z,17.68
2023-02-21T11:36:17.268Z,17.78
2023-02-21T11:39:22.948Z,17.87
2023-02-21T11:42:00.430Z,17.97
2023-02-21T11:44:39.606Z,18.07
2023-02-21T11:47:25.725Z,18.12
2023-02-21T11:50:04.514Z,18.19
2023-02-21T11:52:56.857Z,18.27
2023-02-21T11:55:26.616Z,18.28
2023-02-21T11:58:18.958Z,18.30
2023-02-21T12:01:05.740Z,18.35
2023-02-21T12:03:39.806Z,18.21
2023-02-21T12:06:39.055Z,18.01
2023-02-21T12:09:22.995Z,17.75
2023-02-21T12:11:51.217Z,17.74
2023-02-21T12:14:38.187Z,17.67
2023-02-21T12:17:20.278Z,17.49
2023-02-21T12:20:10.172Z,17.36
2023-02-21T12:23:22.376Z,17.41
2023-02-21T12:26:22.398Z,17.52
2023-02-21T12:29:21.649Z,17.54
2023-02-21T12:32:09.291Z,17.47
2023-02-21T12:35:11.607Z,17.36
2023-02-21T12:37:57.636Z,17.23
2023-02-21T12:40:28.777Z,17.19
2023-02-21T12:43:12.495Z,17.15
2023-02-21T12:46:01.529Z,17.16
2023-02-21T12:48:48.019Z,17.17
2023-02-21T12:51:21.836Z,17.25
2023-02-21T12:54:02.622Z,17.27
2023-02-21T12:56:39.680Z,17.26
2023-02-21T12:59:29.789Z,17.25
2023-02-21T13:02:23.912Z,17.26
2023-02-21T13:05:05.557Z,17.27
2023-02-21T13:07:41.339Z,17.28
2023-02-21T13:10:35.161Z,17.14
2023-02-21T13:13:08.793Z,16.95
2023-02-21T13:15:41.495Z,16.90
2023-02-21T13:18:30.536Z,16.61
2023-02-21T13:21:25.286Z,16.15
2023-02-21T13:23:59.605Z,15.85
2023-02-21T13:26:45.658Z,15.62
2023-02-21T13:29:27.932Z,15.35
2023-02-21T13:32:20.223Z,15.24
2023-02-21T13:35:03.485Z,15.14
2023-02-21T13:37:40.626Z,15.01
2023-02-21T13:40:23.806Z,14.90
2023-02-21T13:43:05.284Z,14.80
2023-02-21T13:45:33.779Z,14.66
2023-02-21T13:48:01.933Z,14.55
2023-02-21T13:50:39.407Z,14.52
2023-02-21T13:53:21.041Z,14.47
2023-02-21T13:56:09.472Z,14.43
2023-02-21T13:58:46.113Z,14.47
2023-02-21T14:01:26.024Z,14.58
2023-02-21T14:04:00.416Z,14.72
2023-02-21T14:06:30.924Z,14.84
2023-02-21T14:09:19.539Z,14.90
2023-02-21T14:11:51.782Z,14.88
2023-02-21T14:14:32.473Z,14.89
2023-02-21T14:17:06.229Z,14.96
2023-02-21T14:19:44.222Z,15.01
2023-02-21T14:22:12.700Z,15.10
2023-02-21T14:24:45.528Z,15.18
2023-02-21T14:27:13.631Z,15.27
2023-02-21T14:29:46.637Z,15.38
2023-02-21T14:32:14.937Z,15.39
2023-02-21T14:34:49.978Z,15.33
2023-02-21T14:37:24.208Z,15.25
2023-02-21T14:39:58.638Z,15.11
2023-02-21T14:43:07.686Z,15.02
2023-02-21T14:45:36.321Z,15.02
2023-02-21T14:48:32.648Z,14.97
2023-02-21T14:51:22.932Z,14.91
2023-02-21T14:54:21.593Z,14.89
2023-02-21T14:57:11.046Z,14.87
2023-02-21T14:59:42.345Z,14.83
2023-02-21T15:02:48.564Z,14.72
2023-02-21T15:05:38.396Z,14.63
2023-02-21T15:08:18.165Z,14.55
2023-02-21T15:10:48.423Z,14.42
2023-02-21T15:13:35.519Z,14.31
2023-02-21T15:16:10.323Z,14.17
2023-02-21T15:19:04.508Z,14.02
2023-02-21T15:21:35.683Z,13.87
2023-02-21T15:24:16.250Z,13.76
2023-02-21T15:26:44.467Z,13.61
2023-02-21T15:29:15.940Z,13.48
2023-02-21T15:31:48.255Z,13.36
2023-02-21T15:34:19.029Z,13.24
2023-02-21T15:36:54.996Z,13.14
2023-02-21T15:39:35.860Z,13.06
2023-02-21T15:42:08.914Z,12.98
2023-02-21T15:44:46.494Z,12.91
2023-02-21T15:47:23.912Z,12.85
2023-02-21T15:49:58.120Z,12.79
2023-02-21T15:52:45.946Z,12.74
2023-02-21T15:55:20.392Z,12.67
2023-02-21T15:57:59.797Z,12.61
2023-02-21T16:00:40.101Z,12.57
2023-02-21T16:03:30.030Z,12.54
2023-02-21T16:06:13.536Z,12.48
2023-02-21T16:09:35.546Z,12.45
2023-02-21T16:12:13.260Z,12.40
2023-02-21T16:15:03.232Z,12.37
2023-02-21T16:17:35.446Z,12.33
2023-02-21T16:20:16.735Z,12.29
2023-02-21T16:25:56.900Z,12.20
2023-02-21T16:28:25.729Z,12.15
2023-02-21T16:30:55.798Z,12.11
2023-02-21T16:33:24.264Z,12.08
2023-02-21T16:35:52.780Z,12.04
2023-02-21T16:38:23.046Z,12.00
2023-02-21T16:40:51.941Z,11.98
2023-02-21T16:43:23.265Z,11.95
2023-02-21T16:45:55.205Z,11.92
2023-02-21T16:48:28.674Z,11.90
2023-02-21T16:50:56.830Z,11.87
2023-02-21T16:53:25.223Z,11.85
2023-02-21T16:55:53.587Z,11.83
2023-02-21T16:58:29.846Z,11.81
2023-02-21T17:01:03.829Z,11.78
2023-02-21T17:03:32.043Z,11.75
2023-02-21T17:06:01.505Z,11.73
2023-02-21T17:08:29.833Z,11.71
2023-02-21T17:10:58.748Z,11.70
2023-02-21T17:13:27.049Z,11.69
2023-02-21T17:15:55.189Z,11.67
2023-02-21T17:18:23.512Z,11.66
2023-02-21T17:20:51.644Z,11.65
2023-02-21T17:23:19.779Z,11.63
2023-02-21T17:25:48.022Z,11.61
2023-02-21T17:28:16.151Z,11.59
2023-02-21T17:30:44.422Z,11.57
2023-02-21T17:33:12.751Z,11.55
2023-02-21T17:35:41.618Z,11.52
2023-02-21T17:38:09.827Z,11.50
2023-02-21T17:40:38.156Z,11.47
2023-02-21T17:43:09.210Z,11.43
2023-02-21T17:45:37.814Z,11.41
2023-02-21T17:48:06.326Z,11.37
2023-02-21T17:50:34.488Z,11.35
2023-02-21T17:53:02.838Z,11.33
2023-02-21T17:55:33.745Z,11.29
2023-02-21T17:58:02.152Z,11.25
2023-02-21T18:00:35.244Z,11.21
2023-02-21T18:03:04.493Z,11.15
2023-02-21T18:05:33.386Z,11.12
2023-02-21T18:08:01.487Z,11.08
2023-02-21T18:10:30.187Z,11.05
2023-02-21T18:12:58.572Z,11.01
2023-02-21T18:15:28.264Z,10.98
2023-02-21T18:17:58.609Z,10.95
2023-02-21T18:20:26.833Z,10.91
2023-02-21T18:22:54.945Z,10.88
2023-02-21T18:25:24.333Z,10.86
2023-02-21T18:27:52.883Z,10.83
2023-02-21T18:30:23.715Z,10.82
2023-02-21T18:32:52.622Z,10.80
2023-02-21T18:35:20.852Z,10.77
2023-02-21T18:37:49.264Z,10.75
2023-02-21T18:40:19.451Z,10.74
2023-02-21T18:42:47.908Z,10.75
2023-02-21T18:45:16.455Z,10.74
2023-02-21T18:47:44.703Z,10.74
2023-02-21T18:50:12.992Z,10.73
2023-02-21T18:52:41.168Z,10.72
2023-02-21T18:55:09.375Z,10.72
2023-02-21T18:57:39.766Z,10.69
2023-02-21T19:00:09.153Z,10.69
2023-02-21T19:02:37.360Z,10.68
2023-02-21T19:05:05.843Z,10.68
2023-02-21T19:07:36.611Z,10.68
2023-02-21T19:10:05.360Z,10.65
2023-02-21T19:12:33.479Z,10.63
2023-02-21T19:15:01.608Z,10.60
2023-02-21T19:17:29.749Z,10.55
2023-02-21T19:19:58.217Z,10.51
2023-02-21T19:22:27.159Z,10.48
2023-02-21T19:24:57.535Z,10.44
2023-02-21T19:27:25.668Z,10.40
2023-02-21T19:29:54.406Z,10.36
2023-02-21T19:32:24.174Z,10.34
2023-02-21T19:34:52.536Z,10.32
2023-02-21T19:37:24.227Z,10.31
2023-02-21T19:39:52.316Z,10.30
2023-02-21T19:42:20.472Z,10.29
2023-02-21T19:44:48.860Z,10.30
2023-02-21T19:47:16.987Z,10.28
2023-02-21T19:49:46.705Z,10.28
2023-02-21T19:52:14.809Z,10.28
2023-02-21T19:54:43.018Z,10.27
2023-02-21T19:57:11.415Z,10.25
2023-02-21T19:59:39.492Z,10.24
2023-02-21T20:02:11.245Z,10.24
2023-02-21T20:04:41.529Z,10.23
2023-02-21T20:07:13.807Z,10.21
2023-02-21T20:09:53.151Z,10.20
2023-02-21T20:12:23.102Z,10.18
2023-02-21T20:14:53.774Z,10.17
2023-02-21T20:17:22.004Z,10.16
2023-02-21T20:19:50.464Z,10.15
2023-02-21T20:22:19.122Z,10.14
2023-02-21T20:24:47.484Z,10.13
2023-02-21T20:27:27.078Z,10.11
2023-02-21T20:30:14.307Z,10.08
2023-02-21T20:32:43.075Z,10.05
2023-02-21T20:35:13.276Z,10.02
2023-02-21T20:37:41.470Z,9.99
2023-02-21T20:40:11.229Z,9.97
2023-02-21T20:42:39.611Z,9.94
2023-02-21T20:45:10.621Z,9.92
2023-02-21T20:47:39.376Z,9.91
2023-02-21T20:50:07.996Z,9.90
2023-02-21T20:52:36.417Z,9.89
2023-02-21T20:55:05.008Z,9.86
2023-02-21T20:57:34.084Z,9.85
2023-02-21T21:00:02.215Z,9.86
2023-02-21T21:02:30.375Z,9.85
2023-02-21T21:04:58.694Z,9.85
2023-02-21T21:07:27.996Z,9.85
2023-02-21T21:09:56.323Z,9.84
2023-02-21T21:12:24.544Z,9.85
2023-02-21T21:14:55.527Z,9.84
2023-02-21T21:17:23.648Z,9.83
2023-02-21T21:19:53.440Z,9.82
2023-02-21T21:22:25.009Z,9.81
2023-02-21T21:24:53.985Z,9.80
2023-02-21T21:27:22.780Z,9.78
2023-02-21T21:29:52.240Z,9.76
2023-02-21T21:32:23.069Z,9.74
2023-02-21T21:34:53.983Z,9.73
2023-02-21T21:37:28.012Z,9.71
2023-02-21T21:39:56.637Z,9.69
2023-02-21T21:42:29.288Z,9.67
2023-02-21T21:44:57.490Z,9.65
2023-02-21T21:47:28.657Z,9.62
2023-02-21T21:49:57.509Z,9.59
2023-02-21T21:52:25.633Z,9.57
2023-02-21T21:54:54.073Z,9.54
2023-02-21T21:57:22.879Z,9.53
2023-02-21T21:59:51.312Z,9.51
2023-02-21T22:02:19.854Z,9.49
2023-02-21T22:04:48.302Z,9.47
2023-02-21T22:07:17.623Z,9.46
2023-02-21T22:09:46.975Z,9.44
2023-02-21T22:12:19.026Z,9.42
2023-02-21T22:14:49.974Z,9.41
2023-02-21T22:17:18.834Z,9.39
2023-02-21T22:19:47.606Z,9.37
2023-02-21T22:22:16.098Z,9.35
2023-02-21T22:24:44.349Z,9.34
2023-02-21T22:27:12.600Z,9.33
2023-02-21T22:29:41.200Z,9.31
2023-02-21T22:32:10.209Z,9.29
2023-02-21T22:34:38.463Z,9.27
2023-02-21T22:37:06.702Z,9.26
2023-02-21T22:39:34.799Z,9.23
2023-02-21T22:42:05.453Z,9.22
2023-02-21T22:44:33.569Z,9.20
2023-02-21T22:47:01.858Z,9.18
2023-02-21T22:49:30.795Z,9.15
2023-02-21T22:51:58.998Z,9.14
2023-02-21T22:54:27.254Z,9.12
2023-02-21T22:57:01.089Z,9.10
2023-02-21T22:59:29.459Z,9.06
2023-02-21T23:01:58.667Z,9.04
2023-02-21T23:04:27.090Z,9.04
2023-02-21T23:06:58.153Z,9.01
2023-02-21T23:09:29.062Z,8.99
2023-02-21T23:12:00.526Z,8.98
2023-02-21T23:14:34.990Z,8.96
2023-02-21T23:17:03.889Z,8.94
2023-02-21T23:19:32.358Z,8.90
2023-02-21T23:22:00.550Z,8.88
2023-02-21T23:24:28.879Z,8.87
2023-02-21T23:26:57.036Z,8.85
2023-02-21T23:29:26.631Z,8.83
2023-02-21T23:32:09.717Z,8.80
2023-02-21T23:34:41.311Z,8.77
2023-02-21T23:37:12.742Z,8.74
2023-02-21T23:39:42.408Z,8.71
2023-02-21T23:42:11.207Z,8.67
2023-02-21T23:44:39.769Z,8.64
2023-02-21T23:47:08.156Z,8.60
2023-02-21T23:49:44.219Z,8.58
2023-02-21T23:52:12.730Z,8.55
2023-02-21T23:54:40.939Z,8.53
2023-02-21T23:57:09.037Z,8.50
2023-02-21T23:59:37.173Z,8.49
